createdAt,value
2018-12-08T00:01:31.950Z,9.70
2018-12-08T00:04:00.109Z,9.60
2018-12-08T00:06:28.236Z,9.60
2018-12-08T00:08:57.359Z,9.60
2018-12-08T00:11:25.613Z,9.60
2018-12-08T00:13:53.821Z,9.50
2018-12-08T00:16:21.999Z,9.50
2018-12-08T00:18:50.326Z,9.40
2018-12-08T00:21:18.466Z,9.30
2018-12-08T00:23:46.582Z,9.10
2018-12-08T00:26:15.687Z,9.00
2018-12-08T00:28:43.970Z,8.90
2018-12-08T00:31:23.718Z,8.80
2018-12-08T00:33:51.890Z,8.70
2018-12-08T00:36:21.160Z,8.60
2018-12-08T00:38:49.321Z,8.60
2018-12-08T00:41:17.455Z,8.60
2018-12-08T00:43:45.602Z,8.50
2018-12-08T00:46:13.858Z,8.40
2018-12-08T00:48:42.199Z,8.40
2018-12-08T00:51:10.497Z,8.40
2018-12-08T00:53:38.688Z,8.30
2018-12-08T00:56:07.139Z,8.20
2018-12-08T00:58:36.089Z,8.20
2018-12-08T01:01:04.257Z,8.10
2018-12-08T01:03:33.177Z,7.90
2018-12-08T01:06:02.712Z,7.80
2018-12-08T01:08:31.274Z,7.60
2018-12-08T01:11:08.262Z,7.50
2018-12-08T01:13:36.425Z,7.40
2018-12-08T01:16:04.654Z,7.40
2018-12-08T01:18:32.848Z,7.30
2018-12-08T01:21:00.956Z,7.30
2018-12-08T01:23:29.173Z,7.40
2018-12-08T01:25:57.303Z,7.30
2018-12-08T01:28:25.473Z,7.30
2018-12-08T01:30:53.639Z,7.30
2018-12-08T01:33:21.831Z,7.30
2018-12-08T01:35:50.027Z,7.30
2018-12-08T01:38:18.156Z,7.30
2018-12-08T01:40:46.513Z,7.40
2018-12-08T01:43:15.153Z,7.40
2018-12-08T01:45:43.598Z,7.40
2018-12-08T01:49:41.036Z,7.40
2018-12-08T01:52:09.177Z,7.40
2018-12-08T01:54:37.376Z,7.50
2018-12-08T01:57:05.541Z,7.50
2018-12-08T01:59:33.675Z,7.50
2018-12-08T02:06:57.092Z,7.40
2018-12-08T02:09:25.348Z,7.50
2018-12-08T02:11:53.566Z,7.50
2018-12-08T02:14:21.708Z,7.50
2018-12-08T02:16:49.957Z,7.50
2018-12-08T02:19:18.029Z,7.40
2018-12-08T02:21:46.144Z,7.40
2018-12-08T02:24:14.253Z,7.40
2018-12-08T02:26:42.392Z,7.40
2018-12-08T02:29:10.549Z,7.30
2018-12-08T02:31:38.722Z,7.30
2018-12-08T02:34:06.904Z,7.30
2018-12-08T02:36:35.042Z,7.40
2018-12-08T02:39:04.706Z,7.40
2018-12-08T02:41:32.862Z,7.40
2018-12-08T02:44:01.039Z,7.30
2018-12-08T02:46:29.234Z,7.30
2018-12-08T02:48:57.472Z,7.30
2018-12-08T02:51:25.615Z,7.30
2018-12-08T02:53:53.730Z,7.30
2018-12-08T02:56:21.901Z,7.20
2018-12-08T02:58:50.096Z,7.10
2018-12-08T03:01:18.231Z,7.00
2018-12-08T03:03:46.325Z,7.00
2018-12-08T03:06:14.506Z,7.00
2018-12-08T03:08:42.668Z,7.00
2018-12-08T03:11:10.829Z,6.90
2018-12-08T03:13:39.035Z,6.90
2018-12-08T03:16:07.191Z,6.90
2018-12-08T03:18:35.377Z,6.90
2018-12-08T03:21:03.767Z,6.90
2018-12-08T03:23:32.317Z,7.00
2018-12-08T03:26:00.594Z,7.00
2018-12-08T03:28:28.777Z,7.00
2018-12-08T03:30:56.964Z,7.10
2018-12-08T03:33:25.121Z,7.10
2018-12-08T03:35:53.194Z,7.20
2018-12-08T03:38:22.291Z,7.20
2018-12-08T03:40:50.998Z,7.20
2018-12-08T03:43:19.332Z,7.20
2018-12-08T03:45:47.710Z,7.20
2018-12-08T03:48:15.802Z,7.20
2018-12-08T03:50:44.018Z,7.20
2018-12-08T03:53:12.158Z,7.20
2018-12-08T03:55:40.349Z,7.20
2018-12-08T03:58:08.546Z,7.20
2018-12-08T04:00:36.786Z,7.20
2018-12-08T04:03:04.964Z,7.20
2018-12-08T04:05:33.045Z,7.20
2018-12-08T04:08:01.239Z,7.20
2018-12-08T04:10:29.384Z,7.20
2018-12-08T04:12:57.559Z,7.10
2018-12-08T04:15:25.770Z,7.00
2018-12-08T04:17:53.922Z,6.90
2018-12-08T04:20:22.096Z,6.80
2018-12-08T04:22:50.250Z,6.70
2018-12-08T04:25:18.664Z,6.70
2018-12-08T04:27:46.849Z,6.60
2018-12-08T04:30:14.990Z,6.50
2018-12-08T04:32:43.343Z,6.50
2018-12-08T04:35:11.459Z,6.60
2018-12-08T04:37:39.629Z,6.60
2018-12-08T04:40:07.858Z,6.50
2018-12-08T04:42:36.175Z,6.50
2018-12-08T04:45:05.258Z,6.50
2018-12-08T04:47:35.316Z,6.50
2018-12-08T04:50:03.775Z,6.60
2018-12-08T04:52:31.957Z,6.60
2018-12-08T04:55:00.161Z,6.60
2018-12-08T04:57:28.370Z,6.60
2018-12-08T04:59:56.465Z,6.60
2018-12-08T05:02:25.087Z,6.60
2018-12-08T05:04:53.236Z,6.70
2018-12-08T05:07:21.526Z,6.60
2018-12-08T05:09:49.701Z,6.60
2018-12-08T05:12:17.850Z,6.60
2018-12-08T05:14:46.122Z,6.70
2018-12-08T05:17:14.309Z,6.70
2018-12-08T05:20:45.743Z,6.60
2018-12-08T05:23:13.816Z,6.60
2018-12-08T05:25:42.009Z,6.60
2018-12-08T05:28:10.546Z,6.60
2018-12-08T05:30:38.672Z,6.70
2018-12-08T05:33:06.808Z,6.70
2018-12-08T05:35:34.928Z,6.70
2018-12-08T05:38:03.463Z,6.70
2018-12-08T05:40:31.650Z,6.70
2018-12-08T05:42:59.811Z,6.60
2018-12-08T05:45:27.922Z,6.60
2018-12-08T05:47:56.136Z,6.50
2018-12-08T05:50:24.298Z,6.50
2018-12-08T05:52:52.479Z,6.40
2018-12-08T05:55:21.429Z,6.40
2018-12-08T05:57:49.525Z,6.30
2018-12-08T06:00:17.791Z,6.30
2018-12-08T06:02:46.058Z,6.20
2018-12-08T06:05:14.457Z,6.20
2018-12-08T06:07:44.812Z,6.10
2018-12-08T06:10:13.366Z,6.10
2018-12-08T06:12:41.781Z,6.10
2018-12-08T06:15:10.307Z,6.00
2018-12-08T06:17:38.546Z,6.00
2018-12-08T06:20:07.661Z,5.90
2018-12-08T06:22:35.899Z,5.90
2018-12-08T06:25:05.714Z,6.00
2018-12-08T06:27:50.200Z,5.90
2018-12-08T06:30:18.576Z,6.00
2018-12-08T06:32:46.845Z,6.00
2018-12-08T06:35:14.983Z,6.00
2018-12-08T06:37:43.161Z,6.00
2018-12-08T06:40:11.310Z,6.00
2018-12-08T06:42:39.529Z,6.00
2018-12-08T06:45:07.701Z,5.90
2018-12-08T06:47:35.847Z,5.80
2018-12-08T06:50:04.274Z,5.70
2018-12-08T06:52:32.414Z,5.70
2018-12-08T06:55:00.598Z,5.70
2018-12-08T06:57:28.800Z,5.70
2018-12-08T06:59:57.954Z,5.60
2018-12-08T07:02:26.100Z,5.50
2018-12-08T07:04:54.295Z,5.50
2018-12-08T07:07:22.389Z,5.50
2018-12-08T07:09:50.737Z,5.50
2018-12-08T07:12:18.839Z,5.50
2018-12-08T07:14:47.048Z,5.50
2018-12-08T07:17:15.166Z,5.60
2018-12-08T07:19:44.285Z,5.60
2018-12-08T07:22:12.457Z,5.60
2018-12-08T07:24:40.633Z,5.70
2018-12-08T07:27:08.786Z,5.70
2018-12-08T07:29:37.091Z,5.70
2018-12-08T07:32:05.536Z,5.70
2018-12-08T07:34:33.717Z,5.70
2018-12-08T07:37:01.911Z,5.70
2018-12-08T07:39:30.068Z,5.70
2018-12-08T07:41:58.313Z,5.70
2018-12-08T07:44:26.446Z,5.80
2018-12-08T07:46:54.675Z,5.80
2018-12-08T07:49:22.804Z,5.90
2018-12-08T07:51:50.951Z,6.00
2018-12-08T07:54:19.130Z,6.20
2018-12-08T07:56:47.295Z,6.10
2018-12-08T07:59:15.481Z,6.00
2018-12-08T08:01:43.656Z,5.80
2018-12-08T08:04:11.794Z,5.80
2018-12-08T08:06:39.926Z,5.80
2018-12-08T08:09:08.077Z,5.70
2018-12-08T08:11:36.263Z,5.70
2018-12-08T08:14:04.440Z,5.70
2018-12-08T08:16:32.603Z,5.70
2018-12-08T08:19:00.929Z,5.70
2018-12-08T08:21:29.057Z,5.70
2018-12-08T08:23:57.218Z,5.80
2018-12-08T08:26:25.401Z,5.90
2018-12-08T08:28:53.581Z,6.00
2018-12-08T08:31:21.759Z,5.90
2018-12-08T08:33:49.970Z,5.90
2018-12-08T08:36:18.077Z,5.90
2018-12-08T08:38:46.275Z,5.90
2018-12-08T08:41:14.460Z,5.90
2018-12-08T08:43:42.662Z,5.90
2018-12-08T08:46:10.832Z,5.90
2018-12-08T08:48:38.956Z,5.90
2018-12-08T08:51:07.268Z,5.90
2018-12-08T08:53:35.620Z,6.00
2018-12-08T08:56:03.823Z,6.10
2018-12-08T08:58:31.982Z,6.10
2018-12-08T09:01:00.200Z,6.10
2018-12-08T09:03:28.439Z,6.10
2018-12-08T09:05:56.569Z,6.10
2018-12-08T09:08:24.726Z,6.20
2018-12-08T09:10:52.874Z,6.30
2018-12-08T09:13:21.152Z,6.30
2018-12-08T09:15:49.942Z,6.40
2018-12-08T09:18:18.322Z,6.40
2018-12-08T09:20:46.532Z,6.50
2018-12-08T09:23:14.682Z,6.50
2018-12-08T09:25:42.791Z,6.60
2018-12-08T09:28:11.393Z,6.70
2018-12-08T09:30:40.517Z,6.70
2018-12-08T09:33:08.722Z,6.80
2018-12-08T09:35:36.939Z,6.90
2018-12-08T09:38:05.128Z,7.00
2018-12-08T09:40:33.260Z,7.30
2018-12-08T09:43:01.389Z,7.40
2018-12-08T09:45:29.661Z,7.40
2018-12-08T09:47:57.828Z,7.30
2018-12-08T09:50:26.031Z,7.20
2018-12-08T09:53:05.616Z,7.30
2018-12-08T09:55:33.972Z,7.30
2018-12-08T09:58:02.135Z,7.40
2018-12-08T10:00:30.335Z,7.30
2018-12-08T10:02:58.466Z,7.40
2018-12-08T10:05:26.720Z,7.40
2018-12-08T10:07:54.843Z,7.40
2018-12-08T10:10:22.973Z,7.50
2018-12-08T10:12:51.180Z,7.70
2018-12-08T10:15:19.266Z,7.80
2018-12-08T10:17:47.412Z,7.70
2018-12-08T10:20:15.585Z,7.60
2018-12-08T10:22:43.871Z,7.70
2018-12-08T10:32:18.620Z,7.80
2018-12-08T10:34:46.875Z,7.70
2018-12-08T10:37:15.185Z,7.70
2018-12-08T10:39:44.642Z,7.70
2018-12-08T10:42:13.039Z,7.70
2018-12-08T10:44:41.234Z,7.60
2018-12-08T10:47:09.421Z,7.70
2018-12-08T10:49:37.600Z,7.70
2018-12-08T10:52:05.770Z,7.80
2018-12-08T10:54:33.928Z,7.80
2018-12-08T10:57:02.146Z,7.90
2018-12-08T10:59:30.408Z,8.10
2018-12-08T11:02:02.876Z,8.10
2018-12-08T11:04:32.026Z,8.00
2018-12-08T11:07:00.683Z,7.80
2018-12-08T11:09:28.938Z,7.80
2018-12-08T11:11:57.208Z,7.90
2018-12-08T11:14:25.470Z,7.90
2018-12-08T11:16:53.665Z,7.90
2018-12-08T11:19:21.817Z,7.80
2018-12-08T11:21:50.004Z,7.70
2018-12-08T11:24:18.193Z,7.70
2018-12-08T11:26:46.409Z,7.70
2018-12-08T11:29:14.515Z,7.70
2018-12-08T11:31:42.808Z,7.80
2018-12-08T11:34:10.969Z,7.80
2018-12-08T11:36:39.213Z,7.80
2018-12-08T11:39:07.321Z,7.80
2018-12-08T11:41:37.458Z,7.80
2018-12-08T11:44:05.630Z,7.90
2018-12-08T11:46:33.823Z,7.90
2018-12-08T11:49:01.967Z,7.90
2018-12-08T11:51:30.835Z,8.00
2018-12-08T11:53:59.094Z,8.00
2018-12-08T11:56:27.209Z,8.00
2018-12-08T11:58:55.399Z,8.10
2018-12-08T12:01:23.597Z,8.10
2018-12-08T12:03:51.709Z,8.10
2018-12-08T12:06:20.721Z,8.10
2018-12-08T12:08:48.890Z,8.10
2018-12-08T12:11:17.065Z,8.20
2018-12-08T12:13:45.256Z,8.20
2018-12-08T12:16:13.476Z,8.30
2018-12-08T12:18:41.617Z,8.40
2018-12-08T12:21:09.798Z,8.30
2018-12-08T12:23:38.003Z,8.30
2018-12-08T12:26:06.129Z,8.30
2018-12-08T12:28:34.314Z,8.30
2018-12-08T12:31:02.364Z,8.30
2018-12-08T12:33:30.617Z,8.30
2018-12-08T12:35:58.840Z,8.40
2018-12-08T12:38:27.010Z,8.40
2018-12-08T12:40:55.185Z,8.40
2018-12-08T12:43:23.398Z,8.40
2018-12-08T12:45:51.533Z,8.40
2018-12-08T12:48:19.662Z,8.30
2018-12-08T12:50:47.760Z,8.40
2018-12-08T12:53:15.955Z,8.40
2018-12-08T12:55:45.435Z,8.40
2018-12-08T12:58:13.634Z,8.40
2018-12-08T13:00:41.778Z,8.40
2018-12-08T13:03:09.977Z,8.40
2018-12-08T13:05:38.166Z,8.40
2018-12-08T13:08:06.429Z,8.40
2018-12-08T13:10:35.643Z,8.40
2018-12-08T13:13:03.805Z,8.40
2018-12-08T13:16:56.509Z,8.40
2018-12-08T13:19:24.692Z,8.40
2018-12-08T13:21:52.800Z,8.30
2018-12-08T13:24:20.991Z,8.30
2018-12-08T13:26:50.176Z,8.30
2018-12-08T13:29:18.346Z,8.30
2018-12-08T13:31:46.517Z,8.30
2018-12-08T13:34:25.245Z,8.30
2018-12-08T13:36:53.432Z,8.30
2018-12-08T13:39:21.586Z,8.30
2018-12-08T13:41:49.771Z,8.40
2018-12-08T13:44:30.103Z,8.50
2018-12-08T13:46:58.241Z,8.50
2018-12-08T13:51:55.504Z,8.50
2018-12-08T13:54:47.033Z,8.40
2018-12-08T13:57:15.171Z,8.40
2018-12-08T13:59:50.310Z,8.40
2018-12-08T14:02:18.456Z,8.30
2018-12-08T14:04:46.757Z,8.30
2018-12-08T14:07:15.166Z,8.30
2018-12-08T14:09:43.294Z,8.10
2018-12-08T14:12:11.505Z,7.90
2018-12-08T14:14:39.657Z,7.80
2018-12-08T14:17:07.837Z,7.60
2018-12-08T14:19:36.003Z,7.60
2018-12-08T14:22:04.164Z,7.50
2018-12-08T14:24:32.366Z,7.40
2018-12-08T14:27:00.661Z,7.30
2018-12-08T14:29:28.810Z,7.30
2018-12-08T14:31:57.101Z,7.30
2018-12-08T14:34:25.379Z,7.30
2018-12-08T14:36:53.749Z,7.20
2018-12-08T14:39:22.037Z,7.20
2018-12-08T14:41:50.231Z,7.10
2018-12-08T14:44:18.378Z,7.10
2018-12-08T14:46:46.550Z,7.00
2018-12-08T14:49:14.714Z,7.00
2018-12-08T14:51:42.909Z,6.90
2018-12-08T14:54:11.091Z,6.90
2018-12-08T14:56:39.278Z,6.90
2018-12-08T14:59:07.413Z,6.90
2018-12-08T15:01:36.513Z,6.90
2018-12-08T15:04:04.726Z,6.80
2018-12-08T15:06:32.906Z,6.80
2018-12-08T15:09:01.051Z,6.90
2018-12-08T15:11:29.247Z,6.90
2018-12-08T15:13:57.449Z,7.00
2018-12-08T15:16:25.528Z,7.00
2018-12-08T15:18:53.650Z,7.00
2018-12-08T15:21:21.850Z,7.00
2018-12-08T15:23:49.954Z,7.00
2018-12-08T15:26:18.005Z,7.00
2018-12-08T15:28:46.145Z,7.00
2018-12-08T15:31:14.348Z,7.10
2018-12-08T15:33:42.531Z,7.20
2018-12-08T15:36:10.683Z,7.20
2018-12-08T15:38:38.889Z,7.20
2018-12-08T15:41:07.053Z,7.20
2018-12-08T15:43:35.249Z,7.10
2018-12-08T15:46:03.360Z,7.00
2018-12-08T15:48:31.522Z,7.00
2018-12-08T15:50:59.710Z,7.00
2018-12-08T15:53:27.891Z,7.00
2018-12-08T15:55:56.053Z,7.00
2018-12-08T15:58:24.209Z,7.00
2018-12-08T16:00:52.439Z,7.00
2018-12-08T16:03:20.778Z,7.00
2018-12-08T16:05:49.038Z,7.10
2018-12-08T16:08:17.204Z,7.10
2018-12-08T16:10:45.438Z,7.20
2018-12-08T16:13:13.643Z,7.10
2018-12-08T16:15:41.707Z,7.20
2018-12-08T16:18:09.854Z,7.20
2018-12-08T16:20:38.022Z,7.30
2018-12-08T16:23:06.175Z,7.30
2018-12-08T16:25:34.341Z,7.30
2018-12-08T16:28:02.615Z,7.40
2018-12-08T16:30:30.729Z,7.40
2018-12-08T16:32:58.874Z,7.50
2018-12-08T16:35:27.058Z,7.40
2018-12-08T16:37:57.142Z,7.50
2018-12-08T16:40:25.550Z,7.50
2018-12-08T16:42:54.853Z,7.50
2018-12-08T16:45:23.101Z,7.40
2018-12-08T16:47:51.197Z,7.50
2018-12-08T16:50:19.311Z,7.50
2018-12-08T16:52:47.444Z,7.50
2018-12-08T16:55:15.642Z,7.50
2018-12-08T16:57:43.879Z,7.60
2018-12-08T17:00:11.972Z,7.60
2018-12-08T17:02:40.158Z,7.60
2018-12-08T17:05:08.350Z,7.60
2018-12-08T17:07:36.774Z,7.60
2018-12-08T17:10:06.153Z,7.60
2018-12-08T17:12:34.325Z,7.60
2018-12-08T17:15:02.581Z,7.70
2018-12-08T17:17:30.876Z,7.70
2018-12-08T17:19:59.031Z,7.70
2018-12-08T17:22:27.363Z,7.70
2018-12-08T17:24:55.711Z,7.70
2018-12-08T17:27:25.058Z,7.70
2018-12-08T17:29:53.539Z,7.70
2018-12-08T17:32:21.743Z,7.70
2018-12-08T17:34:49.888Z,7.80
2018-12-08T17:37:18.078Z,7.80
2018-12-08T17:39:46.304Z,7.80
2018-12-08T17:42:14.418Z,7.80
2018-12-08T17:44:42.601Z,7.80
2018-12-08T17:47:10.885Z,7.80
2018-12-08T17:49:39.058Z,7.80
2018-12-08T17:52:07.165Z,7.80
2018-12-08T17:54:35.310Z,7.80
2018-12-08T17:57:03.498Z,7.80
2018-12-08T17:59:31.740Z,7.80
2018-12-08T18:02:00.002Z,7.90
2018-12-08T18:04:28.213Z,8.00
2018-12-08T18:14:00.012Z,8.00
2018-12-08T18:16:28.186Z,8.10
2018-12-08T18:18:56.389Z,8.00
2018-12-08T18:21:24.561Z,8.10
2018-12-08T18:23:52.910Z,8.10
2018-12-08T18:26:21.087Z,8.10
2018-12-08T18:28:49.238Z,8.10
2018-12-08T18:31:17.427Z,8.10
2018-12-08T18:33:45.637Z,8.10
2018-12-08T18:36:13.775Z,8.10
2018-12-08T18:38:41.999Z,8.00
2018-12-08T18:41:10.148Z,8.10
2018-12-08T18:43:38.268Z,8.00
2018-12-08T18:46:06.398Z,8.00
2018-12-08T18:48:34.640Z,8.10
2018-12-08T18:51:02.750Z,8.10
2018-12-08T18:53:30.926Z,8.10
2018-12-08T18:55:59.113Z,8.10
2018-12-08T18:58:27.267Z,8.00
2018-12-08T19:00:55.426Z,8.20
2018-12-08T19:03:23.709Z,8.10
2018-12-08T19:05:51.907Z,8.10
2018-12-08T19:08:20.062Z,8.10
2018-12-08T19:10:48.254Z,8.00
2018-12-08T19:13:16.464Z,8.00
2018-12-08T19:15:44.609Z,8.00
2018-12-08T19:18:12.763Z,8.00
2018-12-08T19:20:40.955Z,8.00
2018-12-08T19:23:09.118Z,8.00
2018-12-08T19:25:37.362Z,8.00
2018-12-08T19:28:05.576Z,8.00
2018-12-08T19:30:33.734Z,8.00
2018-12-08T19:33:01.861Z,7.90
2018-12-08T19:35:29.977Z,8.00
2018-12-08T19:37:58.148Z,7.90
2018-12-08T19:40:26.326Z,7.90
2018-12-08T19:42:54.564Z,7.90
2018-12-08T19:45:22.672Z,7.80
2018-12-08T19:47:51.802Z,7.80
2018-12-08T19:50:19.953Z,7.70
2018-12-08T19:52:48.124Z,7.60
2018-12-08T19:55:16.372Z,7.50
2018-12-08T19:57:44.555Z,7.40
2018-12-08T20:00:12.831Z,7.40
2018-12-08T20:02:40.965Z,7.30
2018-12-08T20:05:09.139Z,7.30
2018-12-08T20:07:37.289Z,7.30
2018-12-08T20:10:06.061Z,7.20
2018-12-08T20:12:34.148Z,7.10
2018-12-08T20:15:02.334Z,7.10
2018-12-08T20:17:30.477Z,7.10
2018-12-08T20:19:59.639Z,7.20
2018-12-08T20:22:27.753Z,7.20
2018-12-08T20:24:55.914Z,7.10
2018-12-08T20:27:24.093Z,7.10
2018-12-08T20:29:52.234Z,7.10
2018-12-08T20:32:20.361Z,7.10
2018-12-08T20:34:48.613Z,7.10
2018-12-08T20:37:16.813Z,7.00
2018-12-08T20:39:44.963Z,7.00
2018-12-08T20:42:13.140Z,7.00
2018-12-08T20:44:41.371Z,7.00
2018-12-08T20:47:11.534Z,6.90
2018-12-08T20:49:39.783Z,6.80
2018-12-08T20:52:07.885Z,6.80
2018-12-08T20:54:36.077Z,6.80
2018-12-08T20:57:04.338Z,6.70
2018-12-08T20:59:32.607Z,6.80
2018-12-08T21:02:00.712Z,6.80
2018-12-08T21:04:28.858Z,6.70
2018-12-08T21:06:57.083Z,6.80
2018-12-08T21:09:25.206Z,6.80
2018-12-08T21:11:53.380Z,6.80
2018-12-08T21:14:21.554Z,6.70
2018-12-08T21:16:49.756Z,6.70
2018-12-08T21:19:17.925Z,6.60
2018-12-08T21:21:46.109Z,6.60
2018-12-08T21:24:14.271Z,6.50
2018-12-08T21:26:42.494Z,6.50
2018-12-08T21:29:10.644Z,6.50
2018-12-08T21:31:38.786Z,6.60
2018-12-08T21:34:06.925Z,6.50
2018-12-08T21:36:35.023Z,6.50
2018-12-08T21:39:04.945Z,6.50
2018-12-08T21:41:33.121Z,6.50
2018-12-08T21:44:01.318Z,6.50
2018-12-08T21:46:29.652Z,6.50
2018-12-08T21:48:57.817Z,6.50
2018-12-08T21:51:25.974Z,6.50
2018-12-08T21:53:54.083Z,6.50
2018-12-08T21:57:43.568Z,6.40
2018-12-08T22:00:11.747Z,6.40
2018-12-08T22:02:39.948Z,6.40
2018-12-08T22:05:08.097Z,6.40
2018-12-08T22:07:36.371Z,6.40
2018-12-08T22:10:05.766Z,6.40
2018-12-08T22:12:33.966Z,6.40
2018-12-08T22:15:06.392Z,6.40
2018-12-08T22:17:34.487Z,6.30
2018-12-08T22:20:02.721Z,6.30
2018-12-08T22:22:30.858Z,6.20
2018-12-08T22:24:59.038Z,6.20
2018-12-08T22:27:27.171Z,6.30
2018-12-08T22:29:55.236Z,6.20
2018-12-08T22:32:23.551Z,6.20
2018-12-08T22:34:52.116Z,6.20
2018-12-08T22:37:20.217Z,6.20
2018-12-08T22:39:48.411Z,6.10
2018-12-08T22:42:16.573Z,6.10
2018-12-08T22:44:44.742Z,6.20
2018-12-08T22:47:13.294Z,6.10
2018-12-08T22:49:43.346Z,6.20
2018-12-08T22:52:11.545Z,6.20
2018-12-08T22:54:39.737Z,6.20
2018-12-08T22:57:07.848Z,6.20
2018-12-08T22:59:36.021Z,6.20
2018-12-08T23:02:04.407Z,6.30
2018-12-08T23:04:32.585Z,6.40
2018-12-08T23:07:03.285Z,6.40
2018-12-08T23:09:31.399Z,6.50
2018-12-08T23:11:59.702Z,6.50
2018-12-08T23:14:27.848Z,6.60
2018-12-08T23:16:56.100Z,6.60
2018-12-08T23:19:24.359Z,6.50
2018-12-08T23:21:52.467Z,6.50
2018-12-08T23:24:20.642Z,6.50
2018-12-08T23:26:49.214Z,6.50
2018-12-08T23:33:56.274Z,6.50
2018-12-08T23:36:24.482Z,6.50
2018-12-08T23:38:52.941Z,6.50
2018-12-08T23:41:21.467Z,6.50
2018-12-08T23:43:49.855Z,6.50
2018-12-08T23:46:17.950Z,6.40
2018-12-08T23:48:46.140Z,6.40
2018-12-08T23:51:14.287Z,6.40
2018-12-08T23:53:42.450Z,6.40
2018-12-08T23:56:10.625Z,6.40
2018-12-08T23:58:38.790Z,6.40
